createdAt,value
2023-05-25T00:00:28.240Z,101242.08
2023-05-25T00:03:32.182Z,101245.11
2023-05-25T00:06:13.319Z,101246.94
2023-05-25T00:08:58.296Z,101246.78
2023-05-25T00:11:35.063Z,101249.05
2023-05-25T00:14:26.984Z,101245.64
2023-05-25T00:17:06.434Z,101241.16
2023-05-25T00:19:45.245Z,101242.71
2023-05-25T00:22:29.285Z,101243.64
2023-05-25T00:25:11.599Z,101244.23
2023-05-25T00:28:06.594Z,101243.05
2023-05-25T00:30:46.277Z,101244.86
2023-05-25T00:33:32.741Z,101245.45
2023-05-25T00:36:10.540Z,101243.58
2023-05-25T00:39:01.237Z,101246.07
2023-05-25T00:41:36.887Z,101248.94
2023-05-25T00:44:25.853Z,101254.73
2023-05-25T00:47:11.962Z,101256.69
2023-05-25T00:50:05.504Z,101253.80
2023-05-25T00:52:59.484Z,101262.05
2023-05-25T00:55:39.125Z,101258.96
2023-05-25T00:58:19.897Z,101254.30
2023-05-25T01:01:00.149Z,101251.36
2023-05-25T01:03:45.987Z,101251.08
2023-05-25T01:06:37.142Z,101248.67
2023-05-25T01:09:28.252Z,101250.44
2023-05-25T01:12:06.251Z,101255.86
2023-05-25T01:14:48.796Z,101256.39
2023-05-25T01:17:29.882Z,101258.67
2023-05-25T01:20:18.537Z,101257.16
2023-05-25T01:23:17.796Z,101259.09
2023-05-25T01:26:02.866Z,101258.78
2023-05-25T01:28:52.031Z,101257.95
2023-05-25T01:31:39.788Z,101265.11
2023-05-25T01:34:31.784Z,101271.89
2023-05-25T01:37:18.211Z,101271.74
2023-05-25T01:40:01.916Z,101272.45
2023-05-25T01:42:47.299Z,101269.33
2023-05-25T01:45:39.356Z,101271.07
2023-05-25T01:48:43.853Z,101268.11
2023-05-25T01:52:16.687Z,101265.47
2023-05-25T01:55:06.552Z,101272.27
2023-05-25T01:58:02.955Z,101277.84
2023-05-25T02:00:50.218Z,101276.45
2023-05-25T02:03:40.461Z,101276.44
2023-05-25T02:06:32.184Z,101278.20
2023-05-25T02:09:18.892Z,101268.41
2023-05-25T02:12:10.615Z,101268.55
2023-05-25T02:15:12.185Z,101268.58
2023-05-25T02:18:05.972Z,101269.42
2023-05-25T02:20:53.577Z,101267.11
2023-05-25T02:23:33.726Z,101267.57
2023-05-25T02:26:17.064Z,101264.86
2023-05-25T02:29:00.384Z,101264.10
2023-05-25T02:31:43.632Z,101267.67
2023-05-25T02:34:23.351Z,101265.50
2023-05-25T02:37:05.143Z,101266.10
2023-05-25T02:39:54.000Z,101269.31
2023-05-25T02:42:36.301Z,101269.85
2023-05-25T02:45:19.023Z,101270.08
2023-05-25T02:47:55.043Z,101265.60
2023-05-25T02:50:35.852Z,101266.16
2023-05-25T02:53:18.553Z,101267.41
2023-05-25T02:55:53.483Z,101269.42
2023-05-25T02:58:29.332Z,101268.29
2023-05-25T03:01:32.241Z,101268.89
2023-05-25T03:04:22.203Z,101266.36
2023-05-25T03:06:53.960Z,101273.27
2023-05-25T03:09:33.802Z,101279.84
2023-05-25T03:12:13.138Z,101272.63
2023-05-25T03:14:54.756Z,101273.08
2023-05-25T03:17:32.949Z,101273.20
2023-05-25T03:20:07.772Z,101274.34
2023-05-25T03:22:44.229Z,101271.84
2023-05-25T03:25:15.825Z,101271.41
2023-05-25T03:27:54.522Z,101269.78
2023-05-25T03:30:30.759Z,101276.30
2023-05-25T03:33:04.984Z,101280.60
2023-05-25T03:35:43.295Z,101286.08
2023-05-25T03:38:17.603Z,101289.98
2023-05-25T03:40:55.312Z,101290.90
2023-05-25T03:43:33.552Z,101291.36
2023-05-25T03:46:08.176Z,101297.09
2023-05-25T03:48:50.645Z,101306.34
2023-05-25T03:51:24.988Z,101308.55
2023-05-25T03:53:56.403Z,101311.14
2023-05-25T03:56:27.544Z,101316.52
2023-05-25T03:59:03.923Z,101318.09
2023-05-25T04:01:38.534Z,101315.30
2023-05-25T04:04:12.704Z,101315.08
2023-05-25T04:06:49.199Z,101315.20
2023-05-25T04:09:33.048Z,101314.86
2023-05-25T04:12:10.540Z,101316.57
2023-05-25T04:14:46.390Z,101314.34
2023-05-25T04:17:19.279Z,101312.27
2023-05-25T04:19:50.842Z,101314.73
2023-05-25T04:22:25.351Z,101318.26
2023-05-25T04:24:54.280Z,101324.05
2023-05-25T04:27:23.846Z,101326.52
2023-05-25T04:29:54.592Z,101329.52
2023-05-25T04:32:46.860Z,101327.30
2023-05-25T04:35:31.897Z,101327.14
2023-05-25T04:38:03.162Z,101326.25
2023-05-25T04:40:33.557Z,101330.21
2023-05-25T04:43:03.666Z,101328.96
2023-05-25T04:45:33.637Z,101330.34
2023-05-25T04:48:04.029Z,101333.99
2023-05-25T04:50:35.397Z,101335.86
2023-05-25T04:53:04.342Z,101333.31
2023-05-25T04:55:45.871Z,101334.31
2023-05-25T04:58:18.449Z,101334.64
2023-05-25T05:00:47.500Z,101336.30
2023-05-25T05:03:16.786Z,101334.45
2023-05-25T05:05:49.176Z,101332.26
2023-05-25T05:08:26.201Z,101333.52
2023-05-25T05:10:55.031Z,101335.50
2023-05-25T05:13:25.359Z,101336.25
2023-05-25T05:15:57.321Z,101333.83
2023-05-25T05:18:26.311Z,101333.04
2023-05-25T05:20:57.757Z,101331.54
2023-05-25T05:23:28.193Z,101330.34
2023-05-25T05:25:57.273Z,101330.37
2023-05-25T05:28:27.703Z,101329.16
2023-05-25T05:30:56.651Z,101330.20
2023-05-25T05:33:26.728Z,101333.33
2023-05-25T05:35:55.698Z,101330.48
2023-05-25T05:38:26.121Z,101331.35
2023-05-25T05:40:54.919Z,101333.95
2023-05-25T05:43:24.927Z,101334.95
2023-05-25T05:45:54.660Z,101335.40
2023-05-25T05:48:23.460Z,101337.21
2023-05-25T05:50:52.718Z,101335.30
2023-05-25T05:53:22.015Z,101331.80
2023-05-25T05:55:56.073Z,101335.68
2023-05-25T05:58:29.573Z,101331.92
2023-05-25T06:01:00.462Z,101334.52
2023-05-25T06:03:29.272Z,101335.31
2023-05-25T06:05:57.940Z,101334.23
2023-05-25T06:08:27.744Z,101333.63
2023-05-25T06:10:56.427Z,101332.55
2023-05-25T06:13:25.355Z,101334.97
2023-05-25T06:15:53.801Z,101335.08
2023-05-25T06:18:24.781Z,101335.27
2023-05-25T06:20:53.723Z,101333.49
2023-05-25T06:23:22.207Z,101334.88
2023-05-25T06:25:52.835Z,101336.02
2023-05-25T06:28:21.316Z,101341.70
2023-05-25T06:30:50.917Z,101344.41
2023-05-25T06:33:19.393Z,101341.73
2023-05-25T06:35:48.038Z,101338.27
2023-05-25T06:38:16.879Z,101337.56
2023-05-25T06:40:45.276Z,101337.25
2023-05-25T06:43:13.618Z,101334.06
2023-05-25T06:46:09.790Z,101330.55
2023-05-25T06:48:39.675Z,101333.54
2023-05-25T06:51:08.035Z,101329.02
2023-05-25T06:53:36.662Z,101329.61
2023-05-25T06:56:05.109Z,101332.71
2023-05-25T06:58:33.482Z,101335.89
2023-05-25T07:01:01.995Z,101342.09
2023-05-25T07:03:30.537Z,101338.72
2023-05-25T07:05:58.814Z,101342.66
2023-05-25T07:08:27.405Z,101343.30
2023-05-25T07:10:56.194Z,101341.02
2023-05-25T07:13:24.578Z,101337.83
2023-05-25T07:15:53.073Z,101339.84
2023-05-25T07:18:21.722Z,101344.76
2023-05-25T07:20:50.002Z,101341.71
2023-05-25T07:23:18.378Z,101346.61
2023-05-25T07:25:47.167Z,101346.96
2023-05-25T07:28:16.276Z,101354.36
2023-05-25T07:30:44.740Z,101356.67
2023-05-25T07:33:13.138Z,101358.16
2023-05-25T07:35:42.012Z,101357.27
2023-05-25T07:38:10.894Z,101358.55
2023-05-25T07:40:39.272Z,101358.89
2023-05-25T07:43:08.482Z,101360.52
2023-05-25T07:45:37.060Z,101359.23
2023-05-25T07:48:07.626Z,101361.17
2023-05-25T07:50:36.260Z,101364.41
2023-05-25T07:53:04.839Z,101366.49
2023-05-25T07:55:33.116Z,101371.81
2023-05-25T07:58:01.593Z,101370.00
2023-05-25T08:00:30.379Z,101374.17
2023-05-25T08:02:59.149Z,101376.08
2023-05-25T08:05:27.954Z,101372.44
2023-05-25T08:07:56.640Z,101372.12
2023-05-25T08:10:31.497Z,101366.42
2023-05-25T08:13:00.147Z,101370.38
2023-05-25T08:15:28.533Z,101373.55
2023-05-25T08:17:57.016Z,101367.59
2023-05-25T08:20:26.480Z,101365.60
2023-05-25T08:22:54.896Z,101368.10
2023-05-25T08:25:23.268Z,101358.63
2023-05-25T08:27:51.532Z,101354.56
2023-05-25T08:30:19.918Z,101352.83
2023-05-25T08:32:48.564Z,101355.90
2023-05-25T08:35:17.792Z,101355.23
2023-05-25T08:37:46.995Z,101352.33
2023-05-25T08:40:17.232Z,101348.55
2023-05-25T08:42:46.821Z,101347.14
2023-05-25T08:45:26.895Z,101347.45
2023-05-25T08:48:02.134Z,101349.59
2023-05-25T08:50:31.416Z,101348.10
2023-05-25T08:53:02.033Z,101349.64
2023-05-25T08:55:32.660Z,101354.33
2023-05-25T08:58:11.464Z,101356.73
2023-05-25T09:00:43.921Z,101354.94
2023-05-25T09:03:18.310Z,101358.64
2023-05-25T09:05:47.889Z,101355.54
2023-05-25T09:08:17.907Z,101354.81
2023-05-25T09:10:46.281Z,101352.55
2023-05-25T09:13:22.054Z,101354.92
2023-05-25T09:15:52.423Z,101356.33
2023-05-25T09:18:21.618Z,101360.36
2023-05-25T09:20:50.267Z,101363.28
2023-05-25T09:23:19.433Z,101360.75
2023-05-25T09:25:50.983Z,101365.23
2023-05-25T09:30:52.450Z,101375.82
2023-05-25T09:33:21.322Z,101378.32
2023-05-25T09:35:49.758Z,101377.99
2023-05-25T09:38:18.430Z,101373.30
2023-05-25T09:40:47.745Z,101372.67
2023-05-25T09:43:28.324Z,101370.66
2023-05-25T09:46:05.709Z,101370.23
2023-05-25T09:48:34.760Z,101376.17
2023-05-25T09:51:03.320Z,101380.97
2023-05-25T09:53:32.415Z,101379.87
2023-05-25T09:56:02.596Z,101381.96
2023-05-25T09:58:32.341Z,101382.91
2023-05-25T10:01:01.132Z,101378.38
2023-05-25T10:03:29.611Z,101383.45
2023-05-25T10:05:58.113Z,101382.92
2023-05-25T10:08:29.123Z,101382.92
2023-05-25T10:10:57.710Z,101382.44
2023-05-25T10:13:27.627Z,101380.79
2023-05-25T10:15:55.927Z,101379.20
2023-05-25T10:18:27.190Z,101380.60
2023-05-25T10:21:03.180Z,101379.87
2023-05-25T10:23:38.202Z,101383.84
2023-05-25T10:26:06.826Z,101376.56
2023-05-25T10:28:38.420Z,101378.70
2023-05-25T10:31:07.702Z,101377.29
2023-05-25T10:33:36.185Z,101378.96
2023-05-25T10:36:10.811Z,101377.20
2023-05-25T10:38:40.789Z,101374.98
2023-05-25T10:41:10.031Z,101372.84
2023-05-25T10:43:40.105Z,101372.69
2023-05-25T10:46:09.042Z,101370.20
2023-05-25T10:48:45.496Z,101368.13
2023-05-25T10:51:14.643Z,101368.96
2023-05-25T10:53:47.226Z,101368.83
2023-05-25T10:56:15.595Z,101366.75
2023-05-25T10:58:47.558Z,101367.73
2023-05-25T11:01:16.706Z,101368.08
2023-05-25T11:03:45.556Z,101367.03
2023-05-25T11:06:15.970Z,101366.29
2023-05-25T11:09:01.346Z,101363.97
2023-05-25T11:11:45.793Z,101363.13
2023-05-25T11:14:42.566Z,101356.66
2023-05-25T11:17:15.341Z,101353.94
2023-05-25T11:19:47.928Z,101352.76
2023-05-25T11:22:40.375Z,101348.27
2023-05-25T11:25:40.671Z,101349.38
2023-05-25T11:28:11.910Z,101344.38
2023-05-25T11:30:42.195Z,101343.69
2023-05-25T11:33:11.417Z,101342.39
2023-05-25T11:35:40.410Z,101349.69
2023-05-25T11:38:08.891Z,101352.11
2023-05-25T11:40:39.291Z,101349.48
2023-05-25T11:43:08.923Z,101344.40
2023-05-25T11:45:38.572Z,101341.38
2023-05-25T11:48:07.151Z,101337.36
2023-05-25T11:50:36.102Z,101340.02
2023-05-25T11:53:07.554Z,101340.49
2023-05-25T11:55:36.550Z,101330.90
2023-05-25T11:58:04.824Z,101329.02
2023-05-25T12:00:33.548Z,101328.04
2023-05-25T12:03:02.570Z,101319.80
2023-05-25T12:05:38.846Z,101316.57
2023-05-25T12:08:07.233Z,101319.17
2023-05-25T12:10:50.313Z,101314.38
2023-05-25T12:13:18.960Z,101304.69
2023-05-25T12:15:47.616Z,101309.35
2023-05-25T12:18:16.100Z,101305.93
2023-05-25T12:20:44.847Z,101308.00
2023-05-25T12:23:13.680Z,101308.19
2023-05-25T12:25:50.457Z,101308.11
2023-05-25T12:28:19.740Z,101308.20
2023-05-25T12:30:48.085Z,101300.34
2023-05-25T12:33:16.772Z,101296.42
2023-05-25T12:35:47.623Z,101291.86
2023-05-25T12:38:18.817Z,101283.92
2023-05-25T12:40:47.384Z,101282.42
2023-05-25T12:43:17.742Z,101281.67
2023-05-25T12:45:46.374Z,101277.18
2023-05-25T12:48:14.837Z,101277.03
2023-05-25T12:50:59.016Z,101277.44
2023-05-25T12:53:29.244Z,101272.59
2023-05-25T12:56:04.414Z,101272.88
2023-05-25T12:58:32.759Z,101268.73
2023-05-25T13:01:01.219Z,101269.61
2023-05-25T13:03:29.482Z,101270.18
2023-05-25T13:06:02.734Z,101270.14
2023-05-25T13:08:31.357Z,101261.36
2023-05-25T13:11:00.350Z,101258.73
2023-05-25T13:13:28.632Z,101251.84
2023-05-25T13:15:58.511Z,101251.82
2023-05-25T13:18:27.020Z,101253.12
2023-05-25T13:20:56.795Z,101251.08
2023-05-25T13:23:25.829Z,101249.04
2023-05-25T13:25:54.204Z,101249.61
2023-05-25T13:28:22.888Z,101253.05
2023-05-25T13:30:51.156Z,101247.30
2023-05-25T13:33:19.652Z,101244.33
2023-05-25T13:36:08.138Z,101244.56
2023-05-25T13:38:37.694Z,101242.78
2023-05-25T13:41:05.966Z,101240.50
2023-05-25T13:43:34.243Z,101235.01
2023-05-25T13:46:02.537Z,101236.96
2023-05-25T13:48:30.869Z,101230.52
2023-05-25T13:51:00.193Z,101228.55
2023-05-25T13:53:28.567Z,101231.48
2023-05-25T13:55:56.944Z,101230.05
2023-05-25T13:58:25.424Z,101236.27
2023-05-25T14:00:53.929Z,101232.27
2023-05-25T14:03:22.745Z,101234.31
2023-05-25T14:05:52.907Z,101234.08
2023-05-25T14:08:21.199Z,101224.92
2023-05-25T14:10:49.460Z,101224.70
2023-05-25T14:13:17.990Z,101223.61
2023-05-25T14:15:46.845Z,101220.09
2023-05-25T14:18:16.055Z,101218.30
2023-05-25T14:20:44.408Z,101220.94
2023-05-25T14:23:15.163Z,101217.73
2023-05-25T14:25:44.717Z,101219.59
2023-05-25T14:28:13.284Z,101216.65
2023-05-25T14:30:41.699Z,101213.21
2023-05-25T14:33:14.365Z,101214.28
2023-05-25T14:35:43.275Z,101216.45
2023-05-25T14:38:11.906Z,101215.92
2023-05-25T14:40:40.332Z,101214.68
2023-05-25T14:43:08.707Z,101218.77
2023-05-25T14:45:36.973Z,101216.38
2023-05-25T14:48:15.998Z,101214.56
2023-05-25T14:50:45.710Z,101213.23
2023-05-25T14:53:14.095Z,101212.71
2023-05-25T14:55:42.723Z,101207.48
2023-05-25T14:58:11.456Z,101205.67
2023-05-25T15:00:39.734Z,101207.20
2023-05-25T15:03:08.830Z,101198.37
2023-05-25T15:05:37.404Z,101202.77
2023-05-25T15:08:05.711Z,101201.60
2023-05-25T15:10:34.061Z,101201.66
2023-05-25T15:13:02.535Z,101200.95
2023-05-25T15:15:31.125Z,101193.36
2023-05-25T15:17:59.559Z,101193.55
2023-05-25T15:20:27.844Z,101194.77
2023-05-25T15:22:56.252Z,101195.34
2023-05-25T15:25:35.116Z,101195.61
2023-05-25T15:28:04.473Z,101197.19
2023-05-25T15:30:34.710Z,101199.60
2023-05-25T15:33:03.555Z,101191.37
2023-05-25T15:35:32.665Z,101192.40
2023-05-25T15:38:01.879Z,101190.00
2023-05-25T15:40:30.380Z,101192.84
2023-05-25T15:42:58.631Z,101189.66
2023-05-25T15:45:27.031Z,101192.85
2023-05-25T15:47:55.631Z,101194.39
2023-05-25T15:50:23.970Z,101189.17
2023-05-25T15:52:52.448Z,101188.56
2023-05-25T15:55:21.030Z,101191.35
2023-05-25T15:57:49.412Z,101187.08
2023-05-25T16:00:18.305Z,101186.05
2023-05-25T16:02:46.649Z,101182.20
2023-05-25T16:05:15.152Z,101183.13
2023-05-25T16:07:43.635Z,101184.37
2023-05-25T16:10:11.905Z,101186.23
2023-05-25T16:12:40.127Z,101181.25
2023-05-25T16:15:09.186Z,101179.39
2023-05-25T16:17:37.454Z,101180.78
2023-05-25T16:20:07.065Z,101179.42
2023-05-25T16:22:35.431Z,101173.75
2023-05-25T16:25:03.711Z,101175.86
2023-05-25T16:27:32.078Z,101176.92
2023-05-25T16:30:00.468Z,101172.90
2023-05-25T16:32:29.708Z,101173.02
2023-05-25T16:34:58.034Z,101169.58
2023-05-25T16:37:26.305Z,101169.67
2023-05-25T16:39:54.696Z,101169.83
2023-05-25T16:42:25.307Z,101171.67
2023-05-25T16:44:53.584Z,101172.04
2023-05-25T16:47:21.967Z,101173.80
2023-05-25T16:49:50.339Z,101173.73
2023-05-25T16:52:18.649Z,101171.20
2023-05-25T16:54:46.889Z,101166.41
2023-05-25T16:57:15.162Z,101168.29
2023-05-25T16:59:43.542Z,101166.30
2023-05-25T17:02:11.818Z,101166.14
2023-05-25T17:04:40.092Z,101166.59
2023-05-25T17:07:08.576Z,101167.39
2023-05-25T17:09:36.946Z,101170.73
2023-05-25T17:12:06.755Z,101170.66
2023-05-25T17:14:35.033Z,101167.77
2023-05-25T17:17:04.547Z,101168.70
2023-05-25T17:19:32.867Z,101167.35
2023-05-25T17:22:01.185Z,101165.98
2023-05-25T17:24:29.599Z,101162.39
2023-05-25T17:26:58.056Z,101167.13
2023-05-25T17:29:26.318Z,101165.67
2023-05-25T17:31:54.928Z,101169.18
2023-05-25T17:34:23.588Z,101175.47
2023-05-25T17:36:51.862Z,101170.67
2023-05-25T17:39:20.341Z,101172.16
2023-05-25T17:41:50.360Z,101176.79
2023-05-25T17:44:18.738Z,101176.16
2023-05-25T17:46:47.025Z,101176.73
2023-05-25T17:49:15.284Z,101178.87
2023-05-25T17:51:43.563Z,101177.39
2023-05-25T17:54:15.723Z,101176.77
2023-05-25T17:56:44.664Z,101178.00
2023-05-25T17:59:13.003Z,101179.31
2023-05-25T18:01:42.108Z,101179.20
2023-05-25T18:04:10.814Z,101179.02
2023-05-25T18:06:39.452Z,101178.65
2023-05-25T18:09:07.829Z,101184.98
2023-05-25T18:11:36.820Z,101182.66
2023-05-25T18:14:05.403Z,101182.09
2023-05-25T18:16:39.619Z,101184.61
2023-05-25T18:19:09.651Z,101184.92
2023-05-25T18:21:38.823Z,101188.44
2023-05-25T18:24:08.643Z,101188.17
2023-05-25T18:26:36.911Z,101188.36
2023-05-25T18:29:05.300Z,101189.77
2023-05-25T18:31:34.022Z,101192.45
2023-05-25T18:34:02.554Z,101193.62
2023-05-25T18:36:31.241Z,101195.75
2023-05-25T18:38:59.513Z,101197.40
2023-05-25T18:41:27.798Z,101200.17
2023-05-25T18:43:56.173Z,101203.19
2023-05-25T18:46:25.855Z,101201.21
2023-05-25T18:48:54.258Z,101202.02
2023-05-25T18:51:25.932Z,101203.27
2023-05-25T18:53:55.033Z,101201.23
2023-05-25T18:56:23.685Z,101205.06
2023-05-25T18:58:54.940Z,101203.91
2023-05-25T19:01:26.892Z,101206.84
2023-05-25T19:03:58.105Z,101209.54
2023-05-25T19:06:27.643Z,101211.51
2023-05-25T19:08:56.013Z,101215.38
2023-05-25T19:11:24.592Z,101220.39
2023-05-25T19:13:52.891Z,101222.73
2023-05-25T19:16:21.264Z,101226.72
2023-05-25T19:18:49.828Z,101230.40
2023-05-25T19:21:18.204Z,101228.38
2023-05-25T19:23:46.692Z,101227.64
2023-05-25T19:26:15.175Z,101229.69
2023-05-25T19:28:46.199Z,101233.42
2023-05-25T19:31:14.607Z,101237.70
2023-05-25T19:33:43.265Z,101235.61
2023-05-25T19:36:11.994Z,101239.84
2023-05-25T19:38:42.223Z,101242.73
2023-05-25T19:41:11.076Z,101248.73
2023-05-25T19:43:39.537Z,101246.10
2023-05-25T19:46:08.047Z,101244.41
2023-05-25T19:48:36.750Z,101242.11
2023-05-25T19:51:05.181Z,101246.12
2023-05-25T19:53:33.687Z,101244.00
2023-05-25T19:56:03.570Z,101242.72
2023-05-25T19:58:35.276Z,101247.67
2023-05-25T20:01:03.860Z,101250.91
2023-05-25T20:03:32.961Z,101255.36
2023-05-25T20:06:01.792Z,101255.42
2023-05-25T20:08:33.039Z,101260.76
2023-05-25T20:11:01.923Z,101262.95
2023-05-25T20:13:30.914Z,101262.14
2023-05-25T20:15:59.427Z,101257.96
2023-05-25T20:18:28.386Z,101261.69
2023-05-25T20:20:57.177Z,101262.95
2023-05-25T20:23:28.218Z,101266.31
2023-05-25T20:25:56.897Z,101271.69
2023-05-25T20:28:28.344Z,101270.48
2023-05-25T20:30:59.177Z,101272.36
2023-05-25T20:33:27.861Z,101270.52
2023-05-25T20:35:59.212Z,101269.60
2023-05-25T20:38:27.582Z,101270.75
2023-05-25T20:40:56.064Z,101269.98
2023-05-25T20:43:24.552Z,101272.77
2023-05-25T20:45:56.364Z,101271.20
2023-05-25T20:48:27.444Z,101273.65
2023-05-25T20:50:56.130Z,101272.57
2023-05-25T20:53:27.477Z,101276.56
2023-05-25T20:55:57.936Z,101277.27
2023-05-25T20:58:28.534Z,101279.25
2023-05-25T21:00:59.579Z,101280.72
2023-05-25T21:03:31.100Z,101283.42
2023-05-25T21:06:02.573Z,101283.33
2023-05-25T21:08:36.437Z,101284.23
2023-05-25T21:11:05.165Z,101284.30
2023-05-25T21:13:34.054Z,101284.95
2023-05-25T21:16:03.167Z,101286.93
2023-05-25T21:18:33.879Z,101288.15
2023-05-25T21:21:04.829Z,101290.46
2023-05-25T21:23:36.265Z,101292.64
2023-05-25T21:26:05.054Z,101293.95
2023-05-25T21:28:38.866Z,101292.84
2023-05-25T21:31:07.795Z,101295.04
2023-05-25T21:33:37.756Z,101293.37
2023-05-25T21:36:08.036Z,101296.89
2023-05-25T21:38:38.608Z,101294.81
2023-05-25T21:41:07.191Z,101297.48
2023-05-25T21:43:38.124Z,101296.40
2023-05-25T21:46:09.694Z,101303.27
2023-05-25T21:48:40.821Z,101305.79
2023-05-25T21:51:09.617Z,101301.89
2023-05-25T21:53:38.200Z,101302.35
2023-05-25T21:56:09.130Z,101302.27
2023-05-25T21:58:40.164Z,101304.35
2023-05-25T22:01:12.132Z,101301.55
2023-05-25T22:03:40.974Z,101300.63
2023-05-25T22:06:10.011Z,101302.70
2023-05-25T22:08:41.353Z,101306.11
2023-05-25T22:11:12.190Z,101308.34
2023-05-25T22:13:40.685Z,101308.18
2023-05-25T22:16:09.248Z,101311.27
2023-05-25T22:18:38.674Z,101312.36
2023-05-25T22:21:07.356Z,101310.90
2023-05-25T22:23:35.924Z,101313.73
2023-05-25T22:26:05.424Z,101316.76
2023-05-25T22:28:34.006Z,101315.80
2023-05-25T22:31:02.723Z,101322.73
2023-05-25T22:33:31.370Z,101325.13
2023-05-25T22:36:00.176Z,101324.73
2023-05-25T22:38:28.735Z,101325.66
2023-05-25T22:40:59.469Z,101323.79
2023-05-25T22:43:30.102Z,101325.11
2023-05-25T22:46:00.963Z,101324.00
2023-05-25T22:48:29.412Z,101322.70
2023-05-25T22:50:58.521Z,101321.45
2023-05-25T22:53:27.195Z,101326.84
2023-05-25T22:56:00.909Z,101327.08
2023-05-25T22:58:31.830Z,101328.48
2023-05-25T23:01:00.412Z,101330.05
2023-05-25T23:03:30.378Z,101331.95
2023-05-25T23:05:58.906Z,101326.56
2023-05-25T23:08:28.113Z,101327.98
2023-05-25T23:10:56.687Z,101329.38
2023-05-25T23:13:28.032Z,101330.86
2023-05-25T23:15:56.621Z,101328.69
2023-05-25T23:18:25.196Z,101332.04
2023-05-25T23:20:53.690Z,101334.36
2023-05-25T23:23:25.227Z,101335.46
2023-05-25T23:25:57.709Z,101335.77
2023-05-25T23:28:28.864Z,101331.34
2023-05-25T23:30:57.525Z,101337.02
2023-05-25T23:33:26.217Z,101339.05
2023-05-25T23:35:57.873Z,101338.13
2023-05-25T23:38:29.207Z,101342.96
2023-05-25T23:41:00.772Z,101346.20
2023-05-25T23:43:29.455Z,101347.90
2023-05-25T23:45:58.368Z,101345.19
2023-05-25T23:48:32.963Z,101344.92
2023-05-25T23:51:01.954Z,101341.85
2023-05-25T23:53:30.842Z,101341.34
2023-05-25T23:55:59.422Z,101341.65
2023-05-25T23:58:28.108Z,101341.66
